sensor_id;sensor_type;location;lat;lon;timestamp;pressure;altitude;pressure_sealevel;temperature;humidity
19845;BME280;10083;51.038;7.012;2023-11-19T00:00:30;106682.75;;;11.77;100.00
19845;BME280;10083;51.038;7.012;2023-11-19T00:02:58;106793.63;;;12.01;100.00
19845;BME280;10083;51.038;7.012;2023-11-19T00:05:28;106772.13;;;11.88;100.00
19845;BME280;10083;51.038;7.012;2023-11-19T00:07:59;106790.31;;;11.92;100.00
19845;BME280;10083;51.038;7.012;2023-11-19T00:10:33;106791.47;;;11.96;100.00
19845;BME280;10083;51.038;7.012;2023-11-19T00:13:04;106784.84;;;11.91;100.00
19845;BME280;10083;51.038;7.012;2023-11-19T00:15:35;106808.84;;;11.88;100.00
19845;BME280;10083;51.038;7.012;2023-11-19T00:18:07;106845.72;;;11.90;100.00
19845;BME280;10083;51.038;7.012;2023-11-19T00:20:40;106875.75;;;11.96;100.00
19845;BME280;10083;51.038;7.012;2023-11-19T00:23:10;106950.75;;;11.93;100.00
19845;BME280;10083;51.038;7.012;2023-11-19T00:25:41;107019.94;;;11.96;100.00
19845;BME280;10083;51.038;7.012;2023-11-19T00:28:09;107029.16;;;11.99;100.00
19845;BME280;10083;51.038;7.012;2023-11-19T00:30:42;107027.69;;;11.91;100.00
19845;BME280;10083;51.038;7.012;2023-11-19T00:33:11;107126.66;;;12.21;100.00
19845;BME280;10083;51.038;7.012;2023-11-19T00:35:51;107122.56;;;12.27;100.00
19845;BME280;10083;51.038;7.012;2023-11-19T00:38:26;107069.41;;;12.36;100.00
19845;BME280;10083;51.038;7.012;2023-11-19T00:41:01;106979.50;;;12.32;100.00
19845;BME280;10083;51.038;7.012;2023-11-19T00:43:34;106950.97;;;12.34;100.00
19845;BME280;10083;51.038;7.012;2023-11-19T00:46:09;106912.91;;;12.41;100.00
19845;BME280;10083;51.038;7.012;2023-11-19T00:48:50;106841.94;;;12.39;100.00
19845;BME280;10083;51.038;7.012;2023-11-19T00:51:25;106790.00;;;12.40;100.00
19845;BME280;10083;51.038;7.012;2023-11-19T00:53:58;106714.44;;;12.22;100.00
19845;BME280;10083;51.038;7.012;2023-11-19T00:56:44;106761.59;;;12.31;100.00
19845;BME280;10083;51.038;7.012;2023-11-19T00:59:28;106790.13;;;12.29;100.00
19845;BME280;10083;51.038;7.012;2023-11-19T01:02:01;106830.44;;;12.42;100.00
19845;BME280;10083;51.038;7.012;2023-11-19T01:04:34;106816.69;;;12.37;100.00
19845;BME280;10083;51.038;7.012;2023-11-19T01:07:05;106811.13;;;12.34;100.00
19845;BME280;10083;51.038;7.012;2023-11-19T01:09:44;106841.00;;;12.39;100.00
19845;BME280;10083;51.038;7.012;2023-11-19T01:12:22;106842.78;;;12.38;100.00
19845;BME280;10083;51.038;7.012;2023-11-19T01:14:57;106874.00;;;12.36;100.00
19845;BME280;10083;51.038;7.012;2023-11-19T01:17:39;106909.69;;;12.34;100.00
19845;BME280;10083;51.038;7.012;2023-11-19T01:20:34;106962.13;;;12.40;100.00
19845;BME280;10083;51.038;7.012;2023-11-19T01:23:05;107008.63;;;12.51;100.00
19845;BME280;10083;51.038;7.012;2023-11-19T01:25:43;107011.00;;;12.46;100.00
19845;BME280;10083;51.038;7.012;2023-11-19T01:28:23;107022.88;;;12.50;100.00
19845;BME280;10083;51.038;7.012;2023-11-19T01:30:54;107028.28;;;12.50;100.00
19845;BME280;10083;51.038;7.012;2023-11-19T01:33:23;107078.13;;;12.45;100.00
19845;BME280;10083;51.038;7.012;2023-11-19T01:35:51;107108.66;;;12.45;100.00
19845;BME280;10083;51.038;7.012;2023-11-19T01:38:18;107223.63;;;12.48;100.00
19845;BME280;10083;51.038;7.012;2023-11-19T01:40:46;107376.84;;;12.58;100.00
19845;BME280;10083;51.038;7.012;2023-11-19T01:43:31;107433.25;;;12.56;100.00
19845;BME280;10083;51.038;7.012;2023-11-19T01:45:58;107523.22;;;12.60;100.00
19845;BME280;10083;51.038;7.012;2023-11-19T01:48:28;107584.16;;;12.59;100.00
19845;BME280;10083;51.038;7.012;2023-11-19T01:50:57;107652.41;;;12.72;100.00
19845;BME280;10083;51.038;7.012;2023-11-19T01:53:24;107692.34;;;12.77;100.00
19845;BME280;10083;51.038;7.012;2023-11-19T01:55:52;107727.91;;;12.73;100.00
19845;BME280;10083;51.038;7.012;2023-11-19T01:58:20;107711.53;;;12.70;100.00
19845;BME280;10083;51.038;7.012;2023-11-19T02:00:47;107820.16;;;12.82;100.00
19845;BME280;10083;51.038;7.012;2023-11-19T02:03:16;107893.91;;;12.84;100.00
19845;BME280;10083;51.038;7.012;2023-11-19T02:05:45;107944.78;;;12.91;100.00
19845;BME280;10083;51.038;7.012;2023-11-19T02:08:19;107994.25;;;13.03;100.00
19845;BME280;10083;51.038;7.012;2023-11-19T02:10:46;108021.44;;;13.06;100.00
19845;BME280;10083;51.038;7.012;2023-11-19T02:13:14;108077.06;;;13.06;100.00
19845;BME280;10083;51.038;7.012;2023-11-19T02:15:42;108159.31;;;13.23;100.00
19845;BME280;10083;51.038;7.012;2023-11-19T02:18:20;108219.28;;;13.20;100.00
19845;BME280;10083;51.038;7.012;2023-11-19T02:21:00;108286.75;;;13.32;100.00
19845;BME280;10083;51.038;7.012;2023-11-19T02:23:32;108269.28;;;13.27;100.00
19845;BME280;10083;51.038;7.012;2023-11-19T02:26:12;108309.41;;;13.34;100.00
19845;BME280;10083;51.038;7.012;2023-11-19T02:28:50;108280.81;;;13.36;100.00
19845;BME280;10083;51.038;7.012;2023-11-19T02:31:28;108299.72;;;13.26;100.00
19845;BME280;10083;51.038;7.012;2023-11-19T02:34:07;108324.38;;;13.30;100.00
19845;BME280;10083;51.038;7.012;2023-11-19T02:36:41;108407.22;;;13.33;100.00
19845;BME280;10083;51.038;7.012;2023-11-19T02:39:13;108480.09;;;13.24;100.00
19845;BME280;10083;51.038;7.012;2023-11-19T02:41:47;108571.84;;;13.26;100.00
19845;BME280;10083;51.038;7.012;2023-11-19T02:44:30;108652.44;;;13.33;100.00
19845;BME280;10083;51.038;7.012;2023-11-19T02:46:59;108720.09;;;13.36;100.00
19845;BME280;10083;51.038;7.012;2023-11-19T02:49:31;108831.28;;;13.33;100.00
19845;BME280;10083;51.038;7.012;2023-11-19T02:52:03;108919.25;;;13.33;100.00
19845;BME280;10083;51.038;7.012;2023-11-19T02:54:45;109038.09;;;13.44;100.00
19845;BME280;10083;51.038;7.012;2023-11-19T02:57:19;109133.41;;;13.45;100.00
19845;BME280;10083;51.038;7.012;2023-11-19T03:00:02;109168.13;;;13.50;100.00
19845;BME280;10083;51.038;7.012;2023-11-19T03:02:45;109175.91;;;13.47;100.00
19845;BME280;10083;51.038;7.012;2023-11-19T03:05:27;109176.19;;;13.50;100.00
19845;BME280;10083;51.038;7.012;2023-11-19T03:08:00;109165.91;;;13.46;100.00
19845;BME280;10083;51.038;7.012;2023-11-19T03:10:31;109180.06;;;13.44;100.00
19845;BME280;10083;51.038;7.012;2023-11-19T03:13:01;109204.31;;;13.44;100.00
19845;BME280;10083;51.038;7.012;2023-11-19T03:15:39;109252.34;;;13.48;100.00
19845;BME280;10083;51.038;7.012;2023-11-19T03:18:08;109231.28;;;13.35;100.00
19845;BME280;10083;51.038;7.012;2023-11-19T03:20:39;109262.31;;;13.40;100.00
19845;BME280;10083;51.038;7.012;2023-11-19T03:23:11;109360.81;;;13.45;100.00
19845;BME280;10083;51.038;7.012;2023-11-19T03:25:40;109452.16;;;13.51;100.00
19845;BME280;10083;51.038;7.012;2023-11-19T03:28:08;109555.91;;;13.54;100.00
19845;BME280;10083;51.038;7.012;2023-11-19T03:30:44;109614.25;;;13.54;100.00
19845;BME280;10083;51.038;7.012;2023-11-19T03:33:12;109705.22;;;13.64;100.00
19845;BME280;10083;51.038;7.012;2023-11-19T03:35:40;109758.81;;;13.61;100.00
19845;BME280;10083;51.038;7.012;2023-11-19T03:38:15;109850.44;;;13.76;100.00
19845;BME280;10083;51.038;7.012;2023-11-19T03:40:59;109818.34;;;13.71;100.00
19845;BME280;10083;51.038;7.012;2023-11-19T03:43:30;109829.31;;;13.72;100.00
19845;BME280;10083;51.038;7.012;2023-11-19T03:46:07;109818.06;;;13.76;100.00
19845;BME280;10083;51.038;7.012;2023-11-19T03:48:48;109850.56;;;13.69;100.00
19845;BME280;10083;51.038;7.012;2023-11-19T03:51:19;109936.78;;;13.76;100.00
19845;BME280;10083;51.038;7.012;2023-11-19T03:53:48;110019.72;;;13.86;100.00
19845;BME280;10083;51.038;7.012;2023-11-19T03:56:15;110076.00;;;13.98;100.00
19845;BME280;10083;51.038;7.012;2023-11-19T03:58:46;110082.53;;;14.00;100.00
19845;BME280;10083;51.038;7.012;2023-11-19T04:01:15;110066.56;;;14.11;100.00
19845;BME280;10083;51.038;7.012;2023-11-19T04:03:43;110037.47;;;14.24;100.00
19845;BME280;10083;51.038;7.012;2023-11-19T04:06:10;110060.66;;;14.22;100.00
19845;BME280;10083;51.038;7.012;2023-11-19T04:08:38;109933.91;;;14.23;100.00
19845;BME280;10083;51.038;7.012;2023-11-19T04:11:08;109737.97;;;14.25;100.00
19845;BME280;10083;51.038;7.012;2023-11-19T04:13:37;109590.59;;;14.36;100.00
19845;BME280;10083;51.038;7.012;2023-11-19T04:16:14;109419.22;;;14.24;100.00
19845;BME280;10083;51.038;7.012;2023-11-19T04:19:03;109257.69;;;14.10;100.00
19845;BME280;10083;51.038;7.012;2023-11-19T04:21:45;109267.50;;;14.18;100.00
19845;BME280;10083;51.038;7.012;2023-11-19T04:24:20;109125.22;;;14.17;100.00
19845;BME280;10083;51.038;7.012;2023-11-19T04:26:53;108970.88;;;14.02;100.00
19845;BME280;10083;51.038;7.012;2023-11-19T04:29:20;108880.91;;;14.01;100.00
19845;BME280;10083;51.038;7.012;2023-11-19T04:31:49;108829.63;;;14.01;100.00
19845;BME280;10083;51.038;7.012;2023-11-19T04:34:27;108674.41;;;14.05;100.00
19845;BME280;10083;51.038;7.012;2023-11-19T04:36:58;108606.13;;;13.96;100.00
19845;BME280;10083;51.038;7.012;2023-11-19T04:39:29;108514.78;;;14.11;100.00
19845;BME280;10083;51.038;7.012;2023-11-19T04:41:57;108492.53;;;14.03;100.00
19845;BME280;10083;51.038;7.012;2023-11-19T04:44:36;108398.34;;;14.16;100.00
19845;BME280;10083;51.038;7.012;2023-11-19T04:47:07;108188.06;;;14.08;100.00
19845;BME280;10083;51.038;7.012;2023-11-19T04:49:45;107948.06;;;14.09;100.00
19845;BME280;10083;51.038;7.012;2023-11-19T04:52:45;107575.78;;;14.09;100.00
19845;BME280;10083;51.038;7.012;2023-11-19T04:55:27;107352.22;;;14.27;100.00
19845;BME280;10083;51.038;7.012;2023-11-19T04:57:57;107060.06;;;14.29;100.00
19845;BME280;10083;51.038;7.012;2023-11-19T05:00:28;106762.63;;;14.19;100.00
19845;BME280;10083;51.038;7.012;2023-11-19T05:03:00;106668.44;;;14.22;100.00
19845;BME280;10083;51.038;7.012;2023-11-19T05:05:30;106520.91;;;14.37;100.00
19845;BME280;10083;51.038;7.012;2023-11-19T05:07:57;106082.16;;;14.21;100.00
19845;BME280;10083;51.038;7.012;2023-11-19T05:10:28;105908.50;;;14.18;100.00
19845;BME280;10083;51.038;7.012;2023-11-19T05:13:03;105580.44;;;14.18;100.00
19845;BME280;10083;51.038;7.012;2023-11-19T05:15:44;105425.25;;;14.28;100.00
19845;BME280;10083;51.038;7.012;2023-11-19T05:18:37;105264.94;;;14.18;100.00
19845;BME280;10083;51.038;7.012;2023-11-19T05:21:15;105136.31;;;14.16;100.00
19845;BME280;10083;51.038;7.012;2023-11-19T05:24:04;105001.06;;;14.02;100.00
19845;BME280;10083;51.038;7.012;2023-11-19T05:26:44;104852.94;;;14.05;100.00
19845;BME280;10083;51.038;7.012;2023-11-19T05:29:22;104620.94;;;13.99;100.00
19845;BME280;10083;51.038;7.012;2023-11-19T05:31:58;104415.44;;;14.11;100.00
19845;BME280;10083;51.038;7.012;2023-11-19T05:34:37;104145.91;;;14.11;100.00
19845;BME280;10083;51.038;7.012;2023-11-19T05:37:16;103874.56;;;14.08;100.00
19845;BME280;10083;51.038;7.012;2023-11-19T05:39:45;103654.28;;;13.89;100.00
19845;BME280;10083;51.038;7.012;2023-11-19T05:42:13;103455.88;;;13.98;100.00
19845;BME280;10083;51.038;7.012;2023-11-19T05:44:48;103265.44;;;13.85;100.00
19845;BME280;10083;51.038;7.012;2023-11-19T05:47:27;103100.25;;;13.88;100.00
19845;BME280;10083;51.038;7.012;2023-11-19T05:50:00;102928.75;;;13.85;100.00
19845;BME280;10083;51.038;7.012;2023-11-19T05:52:48;102812.91;;;13.84;100.00
19845;BME280;10083;51.038;7.012;2023-11-19T05:55:29;102653.91;;;14.05;100.00
19845;BME280;10083;51.038;7.012;2023-11-19T05:58:01;102522.91;;;13.90;100.00
19845;BME280;10083;51.038;7.012;2023-11-19T06:00:31;102433.13;;;13.88;100.00
19845;BME280;10083;51.038;7.012;2023-11-19T06:03:03;102379.44;;;13.73;100.00
19845;BME280;10083;51.038;7.012;2023-11-19T06:05:39;102349.00;;;13.67;100.00
19845;BME280;10083;51.038;7.012;2023-11-19T06:08:14;102302.13;;;13.84;100.00
19845;BME280;10083;51.038;7.012;2023-11-19T06:10:43;102237.59;;;13.78;100.00
19845;BME280;10083;51.038;7.012;2023-11-19T06:13:15;102220.53;;;13.78;100.00
19845;BME280;10083;51.038;7.012;2023-11-19T06:15:44;102139.94;;;13.64;100.00
19845;BME280;10083;51.038;7.012;2023-11-19T06:18:22;102129.09;;;13.70;100.00
19845;BME280;10083;51.038;7.012;2023-11-19T06:20:50;102072.44;;;13.78;100.00
19845;BME280;10083;51.038;7.012;2023-11-19T06:23:37;102052.69;;;13.79;100.00
19845;BME280;10083;51.038;7.012;2023-11-19T06:26:13;102026.69;;;13.76;100.00
19845;BME280;10083;51.038;7.012;2023-11-19T06:28:40;102038.34;;;13.78;100.00
19845;BME280;10083;51.038;7.012;2023-11-19T06:31:08;102009.56;;;13.80;100.00
19845;BME280;10083;51.038;7.012;2023-11-19T06:33:41;101991.81;;;13.70;100.00
19845;BME280;10083;51.038;7.012;2023-11-19T06:36:20;101976.56;;;13.68;100.00
19845;BME280;10083;51.038;7.012;2023-11-19T06:39:13;101947.03;;;13.63;100.00
19845;BME280;10083;51.038;7.012;2023-11-19T06:41:49;101948.75;;;13.67;100.00
19845;BME280;10083;51.038;7.012;2023-11-19T06:44:17;101951.56;;;13.61;100.00
19845;BME280;10083;51.038;7.012;2023-11-19T06:47:17;101948.13;;;13.51;100.00
19845;BME280;10083;51.038;7.012;2023-11-19T06:49:49;101941.78;;;13.57;100.00
19845;BME280;10083;51.038;7.012;2023-11-19T06:52:47;101922.88;;;13.60;100.00
19845;BME280;10083;51.038;7.012;2023-11-19T06:55:38;101923.09;;;13.48;100.00
19845;BME280;10083;51.038;7.012;2023-11-19T06:58:36;101896.00;;;13.57;100.00
19845;BME280;10083;51.038;7.012;2023-11-19T07:01:34;101884.38;;;13.53;100.00
19845;BME280;10083;51.038;7.012;2023-11-19T07:04:25;101892.38;;;13.58;100.00
19845;BME280;10083;51.038;7.012;2023-11-19T07:07:01;101872.94;;;13.42;100.00
19845;BME280;10083;51.038;7.012;2023-11-19T07:09:43;101874.03;;;13.31;100.00
19845;BME280;10083;51.038;7.012;2023-11-19T07:15:28;101890.78;;;13.48;100.00
19845;BME280;10083;51.038;7.012;2023-11-19T08:14:44;101976.56;;;13.69;100.00
19845;BME280;10083;51.038;7.012;2023-11-19T08:17:30;101973.63;;;13.83;100.00
19845;BME280;10083;51.038;7.012;2023-11-19T08:20:19;101963.47;;;13.98;100.00
19845;BME280;10083;51.038;7.012;2023-11-19T08:22:54;101993.19;;;13.92;100.00
19845;BME280;10083;51.038;7.012;2023-11-19T08:25:40;101973.41;;;13.95;100.00
19845;BME280;10083;51.038;7.012;2023-11-19T08:30:07;101981.28;;;14.05;100.00
19845;BME280;10083;51.038;7.012;2023-11-19T08:32:34;101969.50;;;14.13;100.00
19845;BME280;10083;51.038;7.012;2023-11-19T08:35:11;101990.91;;;14.20;100.00
19845;BME280;10083;51.038;7.012;2023-11-19T08:37:41;101992.41;;;14.36;100.00
19845;BME280;10083;51.038;7.012;2023-11-19T08:40:35;101972.84;;;14.27;100.00
19845;BME280;10083;51.038;7.012;2023-11-19T08:43:04;101989.13;;;14.19;100.00
19845;BME280;10083;51.038;7.012;2023-11-19T08:45:32;101982.66;;;14.29;100.00
19845;BME280;10083;51.038;7.012;2023-11-19T08:48:01;101999.44;;;14.45;100.00
19845;BME280;10083;51.038;7.012;2023-11-19T08:50:33;102009.53;;;14.32;100.00
19845;BME280;10083;51.038;7.012;2023-11-19T08:53:00;102004.06;;;14.40;100.00
19845;BME280;10083;51.038;7.012;2023-11-19T08:55:47;102027.25;;;14.48;100.00
19845;BME280;10083;51.038;7.012;2023-11-19T08:58:15;102009.03;;;14.61;100.00
19845;BME280;10083;51.038;7.012;2023-11-19T09:01:01;102026.94;;;14.62;100.00
19845;BME280;10083;51.038;7.012;2023-11-19T09:03:32;102043.66;;;14.82;100.00
19845;BME280;10083;51.038;7.012;2023-11-19T09:06:04;102056.25;;;14.80;100.00
19845;BME280;10083;51.038;7.012;2023-11-19T09:08:31;102073.22;;;14.87;100.00
19845;BME280;10083;51.038;7.012;2023-11-19T09:11:04;102089.00;;;15.07;100.00
19845;BME280;10083;51.038;7.012;2023-11-19T09:13:41;102130.69;;;15.35;100.00
19845;BME280;10083;51.038;7.012;2023-11-19T09:16:23;102121.38;;;15.51;100.00
19845;BME280;10083;51.038;7.012;2023-11-19T09:18:53;102142.63;;;15.66;100.00
19845;BME280;10083;51.038;7.012;2023-11-19T09:21:29;102215.53;;;15.22;100.00
19845;BME280;10083;51.038;7.012;2023-11-19T09:24:05;102241.94;;;15.05;100.00
19845;BME280;10083;51.038;7.012;2023-11-19T09:26:33;102270.75;;;15.01;100.00
19845;BME280;10083;51.038;7.012;2023-11-19T09:29:17;102293.22;;;15.03;100.00
19845;BME280;10083;51.038;7.012;2023-11-19T09:31:46;102274.19;;;15.11;100.00
19845;BME280;10083;51.038;7.012;2023-11-19T09:37:36;102305.75;;;15.06;100.00
19845;BME280;10083;51.038;7.012;2023-11-19T09:40:12;102292.59;;;15.39;100.00
19845;BME280;10083;51.038;7.012;2023-11-19T09:42:43;102286.84;;;15.58;100.00
19845;BME280;10083;51.038;7.012;2023-11-19T09:45:21;102293.34;;;15.45;100.00
19845;BME280;10083;51.038;7.012;2023-11-19T09:47:51;102307.00;;;15.37;100.00
19845;BME280;10083;51.038;7.012;2023-11-19T09:50:38;102298.06;;;15.35;100.00
19845;BME280;10083;51.038;7.012;2023-11-19T09:53:11;102307.00;;;15.37;100.00
19845;BME280;10083;51.038;7.012;2023-11-19T09:55:57;102298.91;;;15.37;100.00
19845;BME280;10083;51.038;7.012;2023-11-19T09:58:29;102321.53;;;15.30;100.00
19845;BME280;10083;51.038;7.012;2023-11-19T10:01:28;102340.44;;;15.30;100.00
19845;BME280;10083;51.038;7.012;2023-11-19T10:03:57;102332.41;;;15.27;100.00
19845;BME280;10083;51.038;7.012;2023-11-19T10:06:25;102344.00;;;15.32;100.00
19845;BME280;10083;51.038;7.012;2023-11-19T10:08:57;102339.25;;;15.46;100.00
19845;BME280;10083;51.038;7.012;2023-11-19T10:11:45;102316.47;;;15.62;100.00
19845;BME280;10083;51.038;7.012;2023-11-19T10:14:13;102308.19;;;15.71;100.00
19845;BME280;10083;51.038;7.012;2023-11-19T10:17:04;102327.19;;;15.67;100.00
19845;BME280;10083;51.038;7.012;2023-11-19T10:19:31;102303.31;;;15.89;100.00
19845;BME280;10083;51.038;7.012;2023-11-19T10:22:06;102306.03;;;15.89;100.00
19845;BME280;10083;51.038;7.012;2023-11-19T10:24:36;102299.22;;;16.14;100.00
19845;BME280;10083;51.038;7.012;2023-11-19T10:27:24;102321.59;;;16.19;100.00
19845;BME280;10083;51.038;7.012;2023-11-19T10:29:51;102342.31;;;15.75;100.00
19845;BME280;10083;51.038;7.012;2023-11-19T10:32:26;102373.88;;;15.73;100.00
19845;BME280;10083;51.038;7.012;2023-11-19T10:35:14;102355.88;;;15.74;100.00
19845;BME280;10083;51.038;7.012;2023-11-19T10:37:42;102348.03;;;15.60;100.00
19845;BME280;10083;51.038;7.012;2023-11-19T10:43:18;102334.59;;;15.56;100.00
19845;BME280;10083;51.038;7.012;2023-11-19T10:45:47;102350.28;;;15.34;100.00
19845;BME280;10083;51.038;7.012;2023-11-19T10:48:16;102346.38;;;15.53;100.00
19845;BME280;10083;51.038;7.012;2023-11-19T10:50:44;102329.78;;;15.71;100.00
19845;BME280;10083;51.038;7.012;2023-11-19T10:53:13;102344.91;;;15.83;100.00
19845;BME280;10083;51.038;7.012;2023-11-19T10:56:14;102338.22;;;16.01;100.00
19845;BME280;10083;51.038;7.012;2023-11-19T10:58:47;102358.50;;;15.78;100.00
19845;BME280;10083;51.038;7.012;2023-11-19T11:01:43;102377.88;;;16.00;100.00
19845;BME280;10083;51.038;7.012;2023-11-19T11:04:33;102367.91;;;16.02;100.00
19845;BME280;10083;51.038;7.012;2023-11-19T11:07:05;102364.19;;;16.09;100.00
19845;BME280;10083;51.038;7.012;2023-11-19T11:09:35;102377.41;;;15.77;100.00
19845;BME280;10083;51.038;7.012;2023-11-19T11:12:06;102366.69;;;15.74;100.00
19845;BME280;10083;51.038;7.012;2023-11-19T11:14:57;102387.66;;;15.58;100.00
19845;BME280;10083;51.038;7.012;2023-11-19T11:17:25;102407.66;;;15.45;100.00
19845;BME280;10083;51.038;7.012;2023-11-19T11:20:09;102407.94;;;15.30;100.00
19845;BME280;10083;51.038;7.012;2023-11-19T11:22:49;102416.78;;;15.39;100.00
19845;BME280;10083;51.038;7.012;2023-11-19T11:26:34;102383.63;;;15.30;100.00
19845;BME280;10083;51.038;7.012;2023-11-19T11:29:13;102361.81;;;15.42;100.00
19845;BME280;10083;51.038;7.012;2023-11-19T11:31:59;102337.28;;;15.57;100.00
19845;BME280;10083;51.038;7.012;2023-11-19T11:34:43;102293.03;;;16.47;100.00
19845;BME280;10083;51.038;7.012;2023-11-19T11:37:25;102329.22;;;16.00;100.00
19845;BME280;10083;51.038;7.012;2023-11-19T11:39:57;102329.50;;;15.87;100.00
19845;BME280;10083;51.038;7.012;2023-11-19T11:42:41;102315.81;;;15.96;100.00
19845;BME280;10083;51.038;7.012;2023-11-19T11:45:09;102314.16;;;16.30;100.00
19845;BME280;10083;51.038;7.012;2023-11-19T11:48:11;102362.94;;;16.67;100.00
19845;BME280;10083;51.038;7.012;2023-11-19T11:50:53;102361.88;;;17.46;100.00
19845;BME280;10083;51.038;7.012;2023-11-19T11:53:23;102383.34;;;18.20;100.00
19845;BME280;10083;51.038;7.012;2023-11-19T11:55:58;102469.94;;;17.94;100.00
19845;BME280;10083;51.038;7.012;2023-11-19T11:58:49;102516.69;;;17.68;100.00
19845;BME280;10083;51.038;7.012;2023-11-19T12:01:18;102556.84;;;17.49;100.00
19845;BME280;10083;51.038;7.012;2023-11-19T12:03:51;102531.59;;;18.21;100.00
19845;BME280;10083;51.038;7.012;2023-11-19T12:06:20;102578.38;;;17.57;100.00
19845;BME280;10083;51.038;7.012;2023-11-19T12:09:11;102613.00;;;17.00;100.00
19845;BME280;10083;51.038;7.012;2023-11-19T12:11:47;102592.63;;;17.24;100.00
19845;BME280;10083;51.038;7.012;2023-11-19T12:14:16;102612.78;;;17.10;100.00
19845;BME280;10083;51.038;7.012;2023-11-19T12:16:46;102632.34;;;16.80;100.00
19845;BME280;10083;51.038;7.012;2023-11-19T12:22:12;102602.75;;;16.71;100.00
19845;BME280;10083;51.038;7.012;2023-11-19T12:24:42;102604.16;;;16.43;100.00
19845;BME280;10083;51.038;7.012;2023-11-19T12:27:09;102606.78;;;16.46;100.00
19845;BME280;10083;51.038;7.012;2023-11-19T12:29:42;102591.16;;;16.12;100.00
19845;BME280;10083;51.038;7.012;2023-11-19T12:32:10;102596.84;;;15.96;100.00
19845;BME280;10083;51.038;7.012;2023-11-19T12:35:03;102558.28;;;15.84;100.00
19845;BME280;10083;51.038;7.012;2023-11-19T12:37:45;102531.94;;;15.97;100.00
19845;BME280;10083;51.038;7.012;2023-11-19T12:40:16;102496.78;;;16.00;100.00
19845;BME280;10083;51.038;7.012;2023-11-19T12:43:24;102498.97;;;15.78;100.00
19845;BME280;10083;51.038;7.012;2023-11-19T12:45:51;102497.25;;;15.74;100.00
19845;BME280;10083;51.038;7.012;2023-11-19T12:48:37;102474.06;;;15.60;100.00
19845;BME280;10083;51.038;7.012;2023-11-19T12:51:08;102418.59;;;15.91;100.00
19845;BME280;10083;51.038;7.012;2023-11-19T12:53:49;102422.38;;;15.79;100.00
19845;BME280;10083;51.038;7.012;2023-11-19T12:56:20;102446.97;;;15.64;100.00
19845;BME280;10083;51.038;7.012;2023-11-19T12:59:09;102415.38;;;15.69;100.00
19845;BME280;10083;51.038;7.012;2023-11-19T13:01:39;102415.69;;;15.50;100.00
19845;BME280;10083;51.038;7.012;2023-11-19T13:04:27;102393.94;;;15.59;100.00
19845;BME280;10083;51.038;7.012;2023-11-19T13:06:56;102375.53;;;15.82;100.00
19845;BME280;10083;51.038;7.012;2023-11-19T13:10:02;102386.09;;;15.94;100.00
19845;BME280;10083;51.038;7.012;2023-11-19T13:12:29;102367.97;;;16.01;100.00
19845;BME280;10083;51.038;7.012;2023-11-19T13:14:56;102377.38;;;16.23;100.00
19845;BME280;10083;51.038;7.012;2023-11-19T13:17:57;102404.34;;;15.83;100.00
19845;BME280;10083;51.038;7.012;2023-11-19T13:20:24;102371.47;;;16.04;100.00
19845;BME280;10083;51.038;7.012;2023-11-19T13:23:22;102361.59;;;16.02;100.00
19845;BME280;10083;51.038;7.012;2023-11-19T13:25:53;102349.97;;;16.00;100.00
19845;BME280;10083;51.038;7.012;2023-11-19T13:28:37;102357.91;;;16.06;100.00
19845;BME280;10083;51.038;7.012;2023-11-19T13:31:05;102351.50;;;16.11;100.00
19845;BME280;10083;51.038;7.012;2023-11-19T13:33:48;102351.66;;;16.05;100.00
19845;BME280;10083;51.038;7.012;2023-11-19T13:36:28;102338.31;;;15.96;100.00
19845;BME280;10083;51.038;7.012;2023-11-19T13:38:56;102336.91;;;15.75;100.00
19845;BME280;10083;51.038;7.012;2023-11-19T13:41:55;102316.09;;;15.82;100.00
19845;BME280;10083;51.038;7.012;2023-11-19T13:44:23;102270.13;;;16.65;100.00
19845;BME280;10083;51.038;7.012;2023-11-19T13:47:02;102304.84;;;16.83;100.00
19845;BME280;10083;51.038;7.012;2023-11-19T13:49:30;102364.31;;;16.02;100.00
19845;BME280;10083;51.038;7.012;2023-11-19T13:52:31;102359.78;;;16.04;100.00
19845;BME280;10083;51.038;7.012;2023-11-19T13:54:58;102339.50;;;15.81;100.00
19845;BME280;10083;51.038;7.012;2023-11-19T13:57:48;102343.34;;;15.70;100.00
19845;BME280;10083;51.038;7.012;2023-11-19T14:00:18;102311.88;;;15.67;100.00
19845;BME280;10083;51.038;7.012;2023-11-19T14:06:54;102282.56;;;15.45;100.00
19845;BME280;10083;51.038;7.012;2023-11-19T14:09:23;102273.50;;;15.50;100.00
19845;BME280;10083;51.038;7.012;2023-11-19T14:15:20;102257.50;;;15.39;100.00
19845;BME280;10083;51.038;7.012;2023-11-19T14:17:55;102254.66;;;15.46;100.00
19845;BME280;10083;51.038;7.012;2023-11-19T14:20:24;102242.28;;;15.35;100.00
19845;BME280;10083;51.038;7.012;2023-11-19T14:23:06;102234.44;;;15.20;100.00
19845;BME280;10083;51.038;7.012;2023-11-19T14:25:34;102210.13;;;15.22;100.00
19845;BME280;10083;51.038;7.012;2023-11-19T14:28:04;102207.47;;;15.20;100.00
19845;BME280;10083;51.038;7.012;2023-11-19T14:30:35;102218.34;;;15.14;100.00
19845;BME280;10083;51.038;7.012;2023-11-19T14:33:02;102204.94;;;15.11;100.00
19845;BME280;10083;51.038;7.012;2023-11-19T15:45:08;101956.75;;;14.21;100.00
19845;BME280;10083;51.038;7.012;2023-11-19T15:47:35;101932.06;;;13.97;100.00
19845;BME280;10083;51.038;7.012;2023-11-19T15:58:00;101822.50;;;13.99;100.00
19845;BME280;10083;51.038;7.012;2023-11-19T16:04:10;101805.38;;;14.02;100.00